createdAt,value
2023-03-28T00:00:16.556Z,0.50
2023-03-28T00:01:16.565Z,0.50
2023-03-28T00:02:16.556Z,0.50
2023-03-28T00:03:16.534Z,0.60
2023-03-28T00:04:16.563Z,0.50
2023-03-28T00:05:16.543Z,0.50
2023-03-28T00:06:16.680Z,0.60
2023-03-28T00:07:16.527Z,0.50
2023-03-28T00:08:16.526Z,0.50
2023-03-28T00:09:16.497Z,0.50
2023-03-28T00:10:16.511Z,0.50
2023-03-28T00:11:16.494Z,0.50
2023-03-28T00:12:16.484Z,0.60
2023-03-28T00:13:16.469Z,0.50
2023-03-28T00:14:16.473Z,0.60
2023-03-28T00:15:16.466Z,0.50
2023-03-28T00:16:16.528Z,0.50
2023-03-28T00:17:16.488Z,0.60
2023-03-28T00:18:16.448Z,0.50
2023-03-28T00:19:16.445Z,0.50
2023-03-28T00:20:16.442Z,0.60
2023-03-28T00:21:16.435Z,0.50
2023-03-28T00:22:16.434Z,0.50
2023-03-28T00:23:16.422Z,0.60
2023-03-28T00:24:16.415Z,0.50
2023-03-28T00:25:16.400Z,0.50
2023-03-28T00:26:16.393Z,0.60
2023-03-28T00:27:16.394Z,0.60
2023-03-28T00:28:16.376Z,0.50
2023-03-28T00:29:16.374Z,0.50
2023-03-28T00:30:16.375Z,0.50
2023-03-28T00:31:16.408Z,0.60
2023-03-28T00:32:16.363Z,0.40
2023-03-28T00:33:16.349Z,0.60
2023-03-28T00:34:16.353Z,0.50
2023-03-28T00:35:16.357Z,0.50
2023-03-28T00:36:16.341Z,0.60
2023-03-28T00:37:16.322Z,0.60
2023-03-28T00:38:16.343Z,0.50
2023-03-28T00:39:16.318Z,0.50
2023-03-28T00:40:16.334Z,0.50
2023-03-28T00:41:16.299Z,0.50
2023-03-28T00:42:16.289Z,0.60
2023-03-28T00:43:16.283Z,0.50
2023-03-28T00:44:16.267Z,0.50
2023-03-28T00:45:16.284Z,0.50
2023-03-28T00:46:16.309Z,0.50
2023-03-28T00:47:16.268Z,0.50
2023-03-28T00:48:16.310Z,0.60
2023-03-28T00:49:16.255Z,0.50
2023-03-28T00:50:16.304Z,0.50
2023-03-28T00:51:16.255Z,0.50
2023-03-28T00:52:16.253Z,0.50
2023-03-28T00:53:16.229Z,0.60
2023-03-28T00:54:16.211Z,0.60
2023-03-28T00:55:16.206Z,0.40
2023-03-28T00:56:16.245Z,0.50
2023-03-28T00:57:16.228Z,0.60
2023-03-28T00:58:16.182Z,0.40
2023-03-28T00:59:16.179Z,0.50
2023-03-28T01:00:16.179Z,0.70
2023-03-28T01:01:16.215Z,0.50
2023-03-28T01:02:16.190Z,0.50
2023-03-28T01:03:16.265Z,0.50
2023-03-28T01:04:16.139Z,0.50
2023-03-28T01:05:16.137Z,0.50
2023-03-28T01:06:16.129Z,0.60
2023-03-28T01:07:16.155Z,0.50
2023-03-28T01:08:16.143Z,0.60
2023-03-28T01:09:16.106Z,0.50
2023-03-28T01:10:16.105Z,0.40
2023-03-28T01:11:16.101Z,0.60
2023-03-28T01:12:16.105Z,0.50
2023-03-28T01:13:16.083Z,0.50
2023-03-28T01:14:16.085Z,0.50
2023-03-28T01:15:16.095Z,0.50
2023-03-28T01:16:16.121Z,0.50
2023-03-28T01:17:16.111Z,0.50
2023-03-28T01:18:16.060Z,0.50
2023-03-28T01:19:16.048Z,0.60
2023-03-28T01:20:16.038Z,0.50
2023-03-28T01:21:16.035Z,0.50
2023-03-28T01:22:16.014Z,0.60
2023-03-28T01:23:16.016Z,0.50
2023-03-28T01:24:16.007Z,0.50
2023-03-28T01:25:16.042Z,0.60
2023-03-28T01:26:16.054Z,0.40
2023-03-28T01:27:16.003Z,0.50
2023-03-28T01:28:15.975Z,0.60
2023-03-28T01:29:15.999Z,0.50
2023-03-28T01:30:15.985Z,0.50
2023-03-28T01:31:16.059Z,0.60
2023-03-28T01:32:15.964Z,0.50
2023-03-28T01:33:15.953Z,0.50
2023-03-28T01:34:15.947Z,0.60
2023-03-28T01:35:16.013Z,0.50
2023-03-28T01:36:33.643Z,0.50
2023-03-28T01:37:16.925Z,0.50
2023-03-28T01:38:15.943Z,0.50
2023-03-28T01:39:15.905Z,0.60
2023-03-28T01:40:15.927Z,0.60
2023-03-28T01:41:15.912Z,0.50
2023-03-28T01:42:15.899Z,0.50
2023-03-28T01:43:15.902Z,0.50
2023-03-28T01:44:15.897Z,0.50
2023-03-28T01:45:15.881Z,0.50
2023-03-28T01:46:16.020Z,0.60
2023-03-28T01:47:15.864Z,0.50
2023-03-28T01:48:15.864Z,0.50
2023-03-28T01:49:15.854Z,0.60
2023-03-28T01:50:15.844Z,0.50
2023-03-28T01:51:15.841Z,0.50
2023-03-28T01:52:15.854Z,0.60
2023-03-28T01:53:15.830Z,0.50
2023-03-28T01:54:15.850Z,0.60
2023-03-28T01:55:15.804Z,0.50
2023-03-28T01:56:15.855Z,0.50
2023-03-28T01:57:15.923Z,0.50
2023-03-28T01:58:15.803Z,0.60
2023-03-28T01:59:15.801Z,0.50
2023-03-28T02:00:15.837Z,0.50
2023-03-28T02:01:15.880Z,0.60
2023-03-28T02:02:15.800Z,0.40
2023-03-28T02:03:15.854Z,0.50
2023-03-28T02:04:20.739Z,0.50
2023-03-28T02:05:16.768Z,0.40
2023-03-28T02:06:15.732Z,0.50
2023-03-28T02:07:15.755Z,0.60
2023-03-28T02:08:15.732Z,0.50
2023-03-28T02:09:15.707Z,0.40
2023-03-28T02:10:15.712Z,0.50
2023-03-28T02:11:15.705Z,0.40
2023-03-28T02:12:15.712Z,0.60
2023-03-28T02:13:15.701Z,0.60
2023-03-28T02:14:15.690Z,0.40
2023-03-28T02:15:15.687Z,0.50
2023-03-28T02:16:15.723Z,0.60
2023-03-28T02:17:15.678Z,0.60
2023-03-28T02:18:15.694Z,0.50
2023-03-28T02:19:15.662Z,0.60
2023-03-28T02:20:15.650Z,0.50
2023-03-28T02:21:15.668Z,0.60
2023-03-28T02:22:15.654Z,0.50
2023-03-28T02:23:15.674Z,0.50
2023-03-28T02:24:15.636Z,0.60
2023-03-28T02:25:15.628Z,0.50
2023-03-28T02:26:15.612Z,0.50
2023-03-28T02:27:15.623Z,0.60
2023-03-28T02:28:15.621Z,0.50
2023-03-28T02:29:15.616Z,0.70
2023-03-28T02:30:15.597Z,0.60
2023-03-28T02:31:15.610Z,0.40
2023-03-28T02:32:15.587Z,0.50
2023-03-28T02:33:15.585Z,0.60
2023-03-28T02:34:15.578Z,0.40
2023-03-28T02:35:15.581Z,0.50
2023-03-28T02:36:15.553Z,0.60
2023-03-28T02:37:15.566Z,0.40
2023-03-28T02:38:15.547Z,0.50
2023-03-28T02:39:15.571Z,0.50
2023-03-28T02:40:16.547Z,0.50
2023-03-28T02:41:15.536Z,0.40
2023-03-28T02:42:15.524Z,0.50
2023-03-28T02:43:15.595Z,0.60
2023-03-28T02:44:15.523Z,0.40
2023-03-28T02:45:16.514Z,0.50
2023-03-28T02:46:15.551Z,0.50
2023-03-28T02:47:15.501Z,0.50
2023-03-28T02:48:15.484Z,0.50
2023-03-28T02:49:15.494Z,0.50
2023-03-28T02:50:15.467Z,0.50
2023-03-28T02:51:15.474Z,0.60
2023-03-28T02:52:15.479Z,0.60
2023-03-28T02:53:15.459Z,0.60
2023-03-28T02:54:15.439Z,0.50
2023-03-28T02:55:15.456Z,0.60
2023-03-28T02:56:15.438Z,0.40
2023-03-28T02:57:15.498Z,0.50
2023-03-28T02:58:15.429Z,0.50
2023-03-28T02:59:15.419Z,0.50
2023-03-28T03:00:15.432Z,0.60
2023-03-28T03:01:15.450Z,0.40
2023-03-28T03:02:15.418Z,0.50
2023-03-28T03:03:15.416Z,0.50
2023-03-28T03:04:15.401Z,0.60
2023-03-28T03:05:15.406Z,0.50
2023-03-28T03:06:15.371Z,0.50
2023-03-28T03:07:15.369Z,0.50
2023-03-28T03:08:15.356Z,0.50
2023-03-28T03:09:16.362Z,0.50
2023-03-28T03:10:15.364Z,0.50
2023-03-28T03:11:15.333Z,0.50
2023-03-28T03:12:15.374Z,0.60
2023-03-28T03:13:15.333Z,0.50
2023-03-28T03:14:15.315Z,0.40
2023-03-28T03:15:15.333Z,0.50
2023-03-28T03:16:15.324Z,0.60
2023-03-28T03:17:15.311Z,0.50
2023-03-28T03:18:15.296Z,0.50
2023-03-28T03:19:15.295Z,0.50
2023-03-28T03:20:15.302Z,0.50
2023-03-28T03:21:15.304Z,0.40
2023-03-28T03:22:20.942Z,0.50
2023-03-28T03:23:16.262Z,0.50
2023-03-28T03:24:15.267Z,0.50
2023-03-28T03:25:15.278Z,0.60
2023-03-28T03:26:15.242Z,0.50
2023-03-28T03:27:15.244Z,0.50
2023-03-28T03:28:15.231Z,0.60
2023-03-28T03:29:15.220Z,0.50
2023-03-28T03:30:15.251Z,0.50
2023-03-28T03:31:15.227Z,0.50
2023-03-28T03:32:15.221Z,0.40
2023-03-28T03:33:16.765Z,0.50
2023-03-28T03:34:15.198Z,0.40
2023-03-28T03:35:15.200Z,0.40
2023-03-28T03:36:15.199Z,0.60
2023-03-28T03:37:15.184Z,0.50
2023-03-28T03:38:15.185Z,0.50
2023-03-28T03:39:15.167Z,0.50
2023-03-28T03:40:15.161Z,0.50
2023-03-28T03:41:15.148Z,0.50
2023-03-28T03:42:15.141Z,0.60
2023-03-28T03:43:15.172Z,0.40
2023-03-28T03:44:15.127Z,0.50
2023-03-28T03:45:15.135Z,0.50
2023-03-28T03:46:15.184Z,0.50
2023-03-28T03:47:15.123Z,0.50
2023-03-28T03:48:15.121Z,0.50
2023-03-28T03:49:15.125Z,0.60
2023-03-28T03:50:15.112Z,0.50
2023-03-28T03:51:15.104Z,0.60
2023-03-28T03:52:15.081Z,0.50
2023-03-28T03:53:15.088Z,0.40
2023-03-28T03:54:15.080Z,0.50
2023-03-28T03:55:15.073Z,0.60
2023-03-28T03:56:15.061Z,0.50
2023-03-28T03:57:15.103Z,0.40
2023-03-28T03:58:16.051Z,0.50
2023-03-28T03:59:15.038Z,0.60
2023-03-28T04:00:15.030Z,0.50
2023-03-28T04:01:15.035Z,0.50
2023-03-28T04:02:15.064Z,0.60
2023-03-28T04:03:24.283Z,0.50
2023-03-28T04:04:16.050Z,0.50
2023-03-28T04:05:15.013Z,0.70
2023-03-28T04:06:14.991Z,0.50
2023-03-28T04:07:14.993Z,0.50
2023-03-28T04:08:14.981Z,0.50
2023-03-28T04:09:14.985Z,0.40
2023-03-28T04:10:14.998Z,0.60
2023-03-28T04:11:14.981Z,0.50
2023-03-28T04:12:15.957Z,0.60
2023-03-28T04:13:14.946Z,0.40
2023-03-28T04:14:14.954Z,0.40
2023-03-28T04:15:14.938Z,0.60
2023-03-28T04:16:14.980Z,0.40
2023-03-28T04:17:14.933Z,0.50
2023-03-28T04:18:14.944Z,0.50
2023-03-28T04:19:14.925Z,0.40
2023-03-28T04:20:14.905Z,0.50
2023-03-28T04:21:14.912Z,0.50
2023-03-28T04:22:14.908Z,0.40
2023-03-28T04:23:14.894Z,0.40
2023-03-28T04:24:14.922Z,0.60
2023-03-28T04:25:14.907Z,0.50
2023-03-28T04:26:14.895Z,0.50
2023-03-28T04:27:14.862Z,0.40
2023-03-28T04:28:14.871Z,0.50
2023-03-28T04:29:14.847Z,0.40
2023-03-28T04:30:14.846Z,0.50
2023-03-28T04:31:14.871Z,0.50
2023-03-28T04:32:14.844Z,0.60
2023-03-28T04:33:14.831Z,0.60
2023-03-28T04:34:14.836Z,0.40
2023-03-28T04:35:14.827Z,0.60
2023-03-28T04:36:14.835Z,0.40
2023-03-28T04:37:14.805Z,0.60
2023-03-28T04:38:20.445Z,0.50
2023-03-28T04:39:15.797Z,0.40
2023-03-28T04:40:14.786Z,0.50
2023-03-28T04:41:14.785Z,0.60
2023-03-28T04:42:14.775Z,0.50
2023-03-28T04:43:14.766Z,0.50
2023-03-28T04:44:14.777Z,0.40
2023-03-28T04:45:17.141Z,0.60
2023-03-28T04:46:14.824Z,0.60
2023-03-28T04:47:14.741Z,0.50
2023-03-28T04:48:14.750Z,0.50
2023-03-28T04:49:14.735Z,0.60
2023-03-28T04:50:14.729Z,0.40
2023-03-28T04:51:14.715Z,0.50
2023-03-28T04:52:14.703Z,0.60
2023-03-28T04:53:14.707Z,0.50
2023-03-28T04:54:14.687Z,0.50
2023-03-28T04:55:14.687Z,0.40
2023-03-28T04:56:14.686Z,0.40
2023-03-28T04:57:14.796Z,0.60
2023-03-28T04:58:14.683Z,0.40
2023-03-28T04:59:14.670Z,0.60
2023-03-28T05:00:14.669Z,0.50
2023-03-28T05:01:14.677Z,0.50
2023-03-28T05:02:14.656Z,0.60
2023-03-28T05:03:14.737Z,0.50
2023-03-28T05:04:14.625Z,0.50
2023-03-28T05:05:14.618Z,0.50
2023-03-28T05:06:14.617Z,0.50
2023-03-28T05:07:14.603Z,0.50
2023-03-28T05:08:14.603Z,0.50
2023-03-28T05:09:14.628Z,0.50
2023-03-28T05:10:14.591Z,0.50
2023-03-28T05:11:14.583Z,0.50
2023-03-28T05:12:14.660Z,0.50
2023-03-28T05:13:14.553Z,0.60
2023-03-28T05:14:14.588Z,0.40
2023-03-28T05:15:23.061Z,0.50
2023-03-28T05:16:15.588Z,0.70
2023-03-28T05:17:14.541Z,0.50
2023-03-28T05:18:14.525Z,0.60
2023-03-28T05:19:14.540Z,0.60
2023-03-28T05:20:14.519Z,0.50
2023-03-28T05:21:14.532Z,0.50
2023-03-28T05:22:14.515Z,0.50
2023-03-28T05:23:14.511Z,0.50
2023-03-28T05:24:14.490Z,0.50
2023-03-28T05:25:14.486Z,0.50
2023-03-28T05:26:14.495Z,0.60
2023-03-28T05:27:14.482Z,0.50
2023-03-28T05:28:14.484Z,0.60
2023-03-28T05:29:14.454Z,0.60
2023-03-28T05:30:14.468Z,0.40
2023-03-28T05:31:14.440Z,0.60
2023-03-28T05:32:14.443Z,0.40
2023-03-28T05:33:14.508Z,0.60
2023-03-28T05:34:14.423Z,0.50
2023-03-28T05:35:14.425Z,0.50
2023-03-28T05:36:14.434Z,0.50
2023-03-28T05:37:14.412Z,0.50
2023-03-28T05:38:14.425Z,0.50
2023-03-28T05:39:14.411Z,0.80
2023-03-28T05:40:14.440Z,0.60
2023-03-28T05:41:14.380Z,0.50
2023-03-28T05:42:14.378Z,0.40
2023-03-28T05:43:14.428Z,0.40
2023-03-28T05:44:14.985Z,0.60
2023-03-28T05:45:14.369Z,0.40
2023-03-28T05:46:14.415Z,0.50
2023-03-28T05:47:14.359Z,0.60
2023-03-28T05:48:14.351Z,0.50
2023-03-28T05:49:14.329Z,0.50
2023-03-28T05:50:14.345Z,0.50
2023-03-28T05:51:14.329Z,0.30
2023-03-28T05:52:14.318Z,0.50
2023-03-28T05:53:14.312Z,0.70
2023-03-28T05:54:14.325Z,0.50
2023-03-28T05:55:14.309Z,0.60
2023-03-28T05:56:14.307Z,0.40
2023-03-28T05:57:14.338Z,0.50
2023-03-28T05:58:14.266Z,0.60
2023-03-28T05:59:14.270Z,0.60
2023-03-28T06:00:14.295Z,0.60
2023-03-28T06:01:14.264Z,0.60
2023-03-28T06:02:14.236Z,0.50
2023-03-28T06:03:17.188Z,0.60
2023-03-28T06:04:14.264Z,0.60
2023-03-28T06:05:14.297Z,0.50
2023-03-28T06:06:14.218Z,0.50
2023-03-28T06:07:14.211Z,0.60
2023-03-28T06:08:14.231Z,0.50
2023-03-28T06:09:14.190Z,0.60
2023-03-28T06:10:14.206Z,0.50
2023-03-28T06:11:14.210Z,0.50
2023-03-28T06:12:14.208Z,0.60
2023-03-28T06:13:14.170Z,0.50
2023-03-28T06:14:14.172Z,0.60
2023-03-28T06:15:14.161Z,0.40
2023-03-28T06:16:14.179Z,0.50
2023-03-28T06:17:14.247Z,0.70
2023-03-28T06:18:14.179Z,0.50
2023-03-28T06:19:18.192Z,0.60
2023-03-28T06:20:15.171Z,0.50
2023-03-28T06:21:14.119Z,0.50
2023-03-28T06:22:14.124Z,0.60
2023-03-28T06:23:14.107Z,0.40
2023-03-28T06:24:14.102Z,0.60
2023-03-28T06:25:14.085Z,0.60
2023-03-28T06:26:14.181Z,0.60
2023-03-28T06:27:14.085Z,0.60
2023-03-28T06:28:14.082Z,0.50
2023-03-28T06:29:14.066Z,0.50
2023-03-28T06:30:14.061Z,0.50
2023-03-28T06:31:14.092Z,0.70
2023-03-28T06:32:14.071Z,0.50
2023-03-28T06:33:14.033Z,0.60
2023-03-28T06:34:14.041Z,0.60
2023-03-28T06:35:14.024Z,0.50
2023-03-28T06:36:14.123Z,0.60
2023-03-28T06:37:14.020Z,0.50
2023-03-28T06:38:14.067Z,0.50
2023-03-28T06:39:14.000Z,0.50
2023-03-28T06:40:13.995Z,0.50
2023-03-28T06:41:13.991Z,0.50
2023-03-28T06:42:14.017Z,0.50
2023-03-28T06:43:13.976Z,0.60
2023-03-28T06:44:13.978Z,0.50
2023-03-28T06:45:13.963Z,0.50
2023-03-28T06:46:14.002Z,0.60
2023-03-28T06:47:13.965Z,0.60
2023-03-28T06:48:13.945Z,0.50
2023-03-28T06:49:13.950Z,0.50
2023-03-28T06:50:13.928Z,0.50
2023-03-28T06:51:13.918Z,0.50
2023-03-28T06:52:13.913Z,0.60
2023-03-28T06:53:13.941Z,0.60
2023-03-28T06:54:13.897Z,0.40
2023-03-28T06:55:13.906Z,0.50
2023-03-28T06:56:13.907Z,0.60
2023-03-28T06:57:13.925Z,0.50
2023-03-28T06:58:13.897Z,0.40
2023-03-28T06:59:13.865Z,0.50
2023-03-28T07:00:13.875Z,0.60
2023-03-28T07:01:13.876Z,0.50
2023-03-28T07:02:13.849Z,0.40
2023-03-28T07:03:13.951Z,0.60
2023-03-28T07:04:13.857Z,0.50
2023-03-28T07:05:13.843Z,0.50
2023-03-28T07:06:13.821Z,0.50
2023-03-28T07:07:13.823Z,0.50
2023-03-28T07:08:13.826Z,0.40
2023-03-28T07:09:13.898Z,0.50
2023-03-28T07:10:13.816Z,0.50
2023-03-28T07:11:13.799Z,0.60
2023-03-28T07:12:13.801Z,0.50
2023-03-28T07:13:13.784Z,0.50
2023-03-28T07:14:13.846Z,0.50
2023-03-28T07:15:14.621Z,0.50
2023-03-28T07:16:13.762Z,0.40
2023-03-28T07:17:13.749Z,0.50
2023-03-28T07:18:13.750Z,0.40
2023-03-28T07:19:13.767Z,0.40
2023-03-28T07:20:13.729Z,0.40
2023-03-28T07:21:13.724Z,0.40
2023-03-28T07:22:13.722Z,0.40
2023-03-28T07:23:13.716Z,0.50
2023-03-28T07:24:13.713Z,0.40
2023-03-28T07:25:13.729Z,0.40
2023-03-28T07:26:13.693Z,0.40
2023-03-28T07:27:16.237Z,0.40
2023-03-28T07:28:14.680Z,0.40
2023-03-28T07:29:13.671Z,0.40
2023-03-28T07:30:13.706Z,0.40
2023-03-28T07:31:13.684Z,0.40
2023-03-28T07:32:13.668Z,0.40
2023-03-28T07:33:18.918Z,0.50
2023-03-28T07:34:15.692Z,0.40
2023-03-28T07:35:13.637Z,0.30
2023-03-28T07:36:13.723Z,0.40
2023-03-28T07:37:13.637Z,0.50
2023-03-28T07:38:13.616Z,0.40
2023-03-28T07:39:13.604Z,0.30
2023-03-28T07:40:13.635Z,0.30
2023-03-28T07:41:13.601Z,0.30
2023-03-28T07:42:13.579Z,0.30
2023-03-28T07:43:13.580Z,0.40
2023-03-28T07:44:13.563Z,0.40
2023-03-28T07:45:13.564Z,0.40
2023-03-28T07:46:13.603Z,0.30
2023-03-28T07:47:13.569Z,0.30
2023-03-28T07:48:13.551Z,0.40
2023-03-28T07:49:13.539Z,0.30
2023-03-28T07:50:13.527Z,0.30
2023-03-28T07:51:13.558Z,0.30
2023-03-28T07:52:13.519Z,0.20
2023-03-28T07:53:13.499Z,0.40
2023-03-28T07:54:13.496Z,0.40
2023-03-28T07:55:13.489Z,0.30
2023-03-28T07:56:13.484Z,0.30
2023-03-28T07:57:13.560Z,0.30
2023-03-28T07:58:13.472Z,0.30
2023-03-28T07:59:13.486Z,0.30
2023-03-28T08:00:13.518Z,0.20
2023-03-28T08:01:13.451Z,0.30
2023-03-28T08:02:13.466Z,0.20
2023-03-28T08:03:13.483Z,0.20
2023-03-28T08:04:13.497Z,0.20
2023-03-28T08:05:13.452Z,0.30
2023-03-28T08:06:28.568Z,0.30
2023-03-28T08:07:15.442Z,0.20
2023-03-28T08:08:13.402Z,0.30
2023-03-28T08:09:13.402Z,0.20
2023-03-28T08:10:13.426Z,0.20
2023-03-28T08:11:13.398Z,0.20
2023-03-28T08:12:13.382Z,0.30
2023-03-28T08:13:13.372Z,0.30
2023-03-28T08:14:13.361Z,0.30
2023-03-28T08:15:13.377Z,0.30
2023-03-28T08:16:13.374Z,0.20
2023-03-28T08:17:13.355Z,0.20
2023-03-28T08:18:13.336Z,0.20
2023-03-28T08:19:13.323Z,0.20
2023-03-28T08:20:13.351Z,0.20
2023-03-28T08:21:13.327Z,0.10
2023-03-28T08:22:13.322Z,0.30
2023-03-28T08:23:13.298Z,0.20
2023-03-28T08:24:19.583Z,0.20
2023-03-28T08:25:15.301Z,0.20
2023-03-28T08:26:13.289Z,0.20
2023-03-28T08:27:13.293Z,0.20
2023-03-28T08:28:13.276Z,0.20
2023-03-28T08:29:13.256Z,0.30
2023-03-28T08:30:13.267Z,0.20
2023-03-28T08:31:13.347Z,0.20
2023-03-28T08:32:13.234Z,0.20
2023-03-28T08:33:13.278Z,0.20
2023-03-28T08:34:13.227Z,0.20
2023-03-28T08:35:13.231Z,0.30
2023-03-28T08:36:13.263Z,0.20
2023-03-28T08:37:13.223Z,0.20
2023-03-28T08:38:13.228Z,0.20
2023-03-28T08:39:13.192Z,0.20
2023-03-28T08:40:13.183Z,0.20
2023-03-28T08:41:13.179Z,0.20
2023-03-28T08:42:13.182Z,0.20
2023-03-28T08:43:13.177Z,0.20
2023-03-28T08:44:13.179Z,0.30
2023-03-28T08:45:13.155Z,0.20
2023-03-28T08:46:13.156Z,0.20
2023-03-28T08:47:13.145Z,0.20
2023-03-28T08:48:13.174Z,0.20
2023-03-28T08:49:13.192Z,0.20
2023-03-28T08:50:13.539Z,0.20
2023-03-28T08:51:13.113Z,0.20
2023-03-28T08:52:13.115Z,0.30
2023-03-28T08:53:13.113Z,0.20
2023-03-28T08:54:13.101Z,0.20
2023-03-28T08:55:13.080Z,0.30
2023-03-28T08:56:13.092Z,0.20
2023-03-28T08:57:13.111Z,0.20
2023-03-28T08:58:13.084Z,0.20
2023-03-28T08:59:13.098Z,0.20
2023-03-28T09:00:13.064Z,0.10
2023-03-28T09:01:13.055Z,0.10
2023-03-28T09:02:13.114Z,0.10
2023-03-28T09:03:13.273Z,0.10
2023-03-28T09:04:14.199Z,0.10
2023-03-28T09:05:23.026Z,0.20
2023-03-28T09:06:15.026Z,0.20
2023-03-28T09:07:13.017Z,0.20
2023-03-28T09:08:12.997Z,0.20
2023-03-28T09:09:13.065Z,0.10
2023-03-28T09:10:13.000Z,0.10
2023-03-28T09:11:13.016Z,0.10
2023-03-28T09:12:12.978Z,0.20
2023-03-28T09:13:12.983Z,0.10
2023-03-28T09:14:12.973Z,0.10
2023-03-28T09:15:12.972Z,0.10
2023-03-28T09:16:13.003Z,0.10
2023-03-28T09:17:13.006Z,0.10
2023-03-28T09:18:12.984Z,0.10
2023-03-28T09:19:12.940Z,0.00
2023-03-28T09:20:12.923Z,0.10
2023-03-28T09:21:12.932Z,0.10
2023-03-28T09:22:15.750Z,0.30
2023-03-28T09:23:13.925Z,0.20
2023-03-28T09:24:12.905Z,0.20
2023-03-28T09:25:12.899Z,0.20
2023-03-28T09:26:12.879Z,0.30
2023-03-28T09:27:12.908Z,0.20
2023-03-28T09:28:12.881Z,0.20
2023-03-28T09:29:12.880Z,0.10
2023-03-28T09:30:12.863Z,0.30
2023-03-28T09:31:13.030Z,0.20
2023-03-28T09:32:12.909Z,0.10
2023-03-28T09:33:12.837Z,0.10
2023-03-28T09:34:12.826Z,0.20
2023-03-28T09:35:12.828Z,0.10
2023-03-28T09:36:12.871Z,0.10
2023-03-28T09:37:12.818Z,0.10
2023-03-28T09:38:12.808Z,0.10
2023-03-28T09:39:12.829Z,0.10
2023-03-28T09:40:12.791Z,0.10
2023-03-28T09:41:12.792Z,0.20
2023-03-28T09:42:12.785Z,0.30
2023-03-28T09:43:12.778Z,0.30
2023-03-28T09:44:12.784Z,0.20
2023-03-28T09:45:12.759Z,0.20
2023-03-28T09:46:12.808Z,0.30
2023-03-28T09:47:12.735Z,0.20
2023-03-28T09:48:12.807Z,0.20
2023-03-28T09:49:12.735Z,0.30
2023-03-28T09:50:13.432Z,0.30
2023-03-28T09:51:13.715Z,0.10
2023-03-28T09:52:12.733Z,0.10
2023-03-28T09:53:12.705Z,0.10
2023-03-28T09:54:12.704Z,0.10
2023-03-28T09:55:12.710Z,0.10
2023-03-28T09:56:12.691Z,0.10
2023-03-28T09:57:12.728Z,0.10
2023-03-28T09:58:12.705Z,0.10
2023-03-28T09:59:12.678Z,0.20
2023-03-28T10:00:12.886Z,0.10
2023-03-28T10:01:12.668Z,0.20
2023-03-28T10:02:12.659Z,0.10
2023-03-28T10:03:12.682Z,0.20
2023-03-28T10:04:12.649Z,0.20
2023-03-28T10:05:12.694Z,0.20
2023-03-28T10:06:12.646Z,0.10
2023-03-28T10:07:12.622Z,0.10
2023-03-28T10:08:12.606Z,0.20
2023-03-28T10:09:12.609Z,0.10
2023-03-28T10:10:12.599Z,0.10
2023-03-28T10:11:12.612Z,0.20
2023-03-28T10:12:12.587Z,0.20
2023-03-28T10:13:12.579Z,0.20
2023-03-28T10:14:12.576Z,0.30
2023-03-28T10:15:12.563Z,0.20
2023-03-28T10:16:12.636Z,0.40
2023-03-28T10:17:12.574Z,0.30
2023-03-28T10:18:12.572Z,0.30
2023-03-28T10:19:12.537Z,0.30
2023-03-28T10:20:12.542Z,0.30
2023-03-28T10:21:12.532Z,0.30
2023-03-28T10:22:12.530Z,0.30
2023-03-28T10:23:12.518Z,0.30
2023-03-28T10:24:12.505Z,0.20
2023-03-28T10:25:12.501Z,0.30
2023-03-28T10:26:12.670Z,0.30
2023-03-28T10:27:12.488Z,0.20
2023-03-28T10:28:12.484Z,0.10
2023-03-28T10:29:12.475Z,0.30
2023-03-28T10:30:12.489Z,0.30
2023-03-28T10:31:12.520Z,0.30
2023-03-28T10:32:12.468Z,0.20
2023-03-28T10:33:12.447Z,0.30
2023-03-28T10:34:12.554Z,0.40
2023-03-28T10:35:12.435Z,0.40
2023-03-28T10:36:12.466Z,0.30
2023-03-28T10:37:12.443Z,0.30
2023-03-28T10:38:12.421Z,0.30
2023-03-28T10:39:12.421Z,0.10
2023-03-28T10:40:12.419Z,0.20
2023-03-28T10:41:12.420Z,0.10
2023-03-28T10:42:12.394Z,0.10
2023-03-28T10:43:12.401Z,0.20
2023-03-28T10:44:12.372Z,0.20
2023-03-28T10:45:12.386Z,0.20
2023-03-28T10:46:12.450Z,0.30
2023-03-28T10:47:12.476Z,0.20
2023-03-28T10:48:12.366Z,0.20
2023-03-28T10:49:12.352Z,0.20
2023-03-28T10:50:12.364Z,0.20
2023-03-28T10:51:12.333Z,0.30
2023-03-28T10:52:12.332Z,0.40
2023-03-28T10:53:12.331Z,0.40
2023-03-28T10:54:12.329Z,0.20
2023-03-28T10:55:12.344Z,0.20
2023-03-28T10:56:12.312Z,0.20
2023-03-28T10:57:12.377Z,0.10
2023-03-28T10:58:12.296Z,0.20
2023-03-28T10:59:12.281Z,0.20
2023-03-28T11:00:12.338Z,0.20
2023-03-28T11:01:12.284Z,0.10
2023-03-28T11:02:12.305Z,0.10
2023-03-28T11:03:12.361Z,0.10
2023-03-28T11:04:12.369Z,0.20
2023-03-28T11:05:12.658Z,0.10
2023-03-28T11:06:12.252Z,0.10
2023-03-28T11:07:12.240Z,0.20
2023-03-28T11:08:12.231Z,0.30
2023-03-28T11:09:12.247Z,0.40
2023-03-28T11:10:12.225Z,0.30
2023-03-28T11:11:12.213Z,0.50
2023-03-28T11:12:23.074Z,0.40
2023-03-28T11:13:14.197Z,0.20
2023-03-28T11:14:12.195Z,0.30
2023-03-28T11:15:12.200Z,0.20
2023-03-28T11:16:12.212Z,0.30
2023-03-28T11:17:12.183Z,0.20
2023-03-28T11:18:12.194Z,0.20
2023-03-28T11:19:12.159Z,0.30
2023-03-28T11:20:12.151Z,0.20
2023-03-28T11:21:12.155Z,0.30
2023-03-28T11:22:12.125Z,0.30
2023-03-28T11:23:12.129Z,0.20
2023-03-28T11:24:12.120Z,0.20
2023-03-28T11:25:12.155Z,0.20
2023-03-28T11:26:12.112Z,0.40
2023-03-28T11:27:16.048Z,0.30
2023-03-28T11:28:13.103Z,0.40
2023-03-28T11:29:12.093Z,0.30
2023-03-28T11:30:12.103Z,0.40
2023-03-28T11:31:12.105Z,0.30
2023-03-28T11:32:12.100Z,0.30
2023-03-28T11:33:12.071Z,0.20
2023-03-28T11:34:12.050Z,0.40
2023-03-28T11:35:12.046Z,0.40
2023-03-28T11:36:12.046Z,0.50
2023-03-28T11:37:12.025Z,0.50
2023-03-28T11:38:12.027Z,0.20
2023-03-28T11:39:12.012Z,0.30
2023-03-28T11:40:12.211Z,0.30
2023-03-28T11:41:13.004Z,0.20
2023-03-28T11:42:11.993Z,0.40
2023-03-28T11:43:11.998Z,0.30
2023-03-28T11:44:13.090Z,0.20
2023-03-28T11:45:11.971Z,0.20
2023-03-28T11:46:11.977Z,0.30
2023-03-28T11:47:11.959Z,0.20
2023-03-28T11:48:11.950Z,0.20
2023-03-28T11:49:11.953Z,0.40
2023-03-28T11:50:12.059Z,0.50
2023-03-28T11:51:11.935Z,0.40
2023-03-28T11:52:11.923Z,0.20
2023-03-28T11:53:11.915Z,0.40
2023-03-28T11:54:11.908Z,0.20
2023-03-28T11:55:14.426Z,0.20
2023-03-28T11:56:11.905Z,0.30
2023-03-28T11:57:11.902Z,0.30
2023-03-28T11:58:11.881Z,0.30
2023-03-28T11:59:11.910Z,0.20
2023-03-28T12:00:23.111Z,0.20
2023-03-28T12:01:13.921Z,0.20
2023-03-28T12:02:11.895Z,0.20
2023-03-28T12:03:11.966Z,0.30
2023-03-28T12:04:11.908Z,0.20
2023-03-28T12:05:11.840Z,0.10
2023-03-28T12:06:11.832Z,0.30
2023-03-28T12:07:11.838Z,0.20
2023-03-28T12:08:11.811Z,0.40
2023-03-28T12:09:11.809Z,0.30
2023-03-28T12:10:11.879Z,0.20
2023-03-28T12:11:11.832Z,0.20
2023-03-28T12:12:11.795Z,0.20
2023-03-28T12:13:11.790Z,0.20
2023-03-28T12:14:12.649Z,0.20
2023-03-28T12:15:12.793Z,0.30
2023-03-28T12:16:11.877Z,0.20
2023-03-28T12:17:11.788Z,0.20
2023-03-28T12:18:11.789Z,0.20
2023-03-28T12:19:11.757Z,0.20
2023-03-28T12:20:11.769Z,0.20
2023-03-28T12:21:11.785Z,0.30
2023-03-28T12:22:11.733Z,0.20
2023-03-28T12:23:11.708Z,0.20
2023-03-28T12:24:11.743Z,0.20
2023-03-28T12:25:11.710Z,0.20
2023-03-28T12:26:11.704Z,0.20
2023-03-28T12:27:11.707Z,0.30
2023-03-28T12:28:11.675Z,0.30
2023-03-28T12:29:11.686Z,0.40
2023-03-28T12:30:11.687Z,0.30
2023-03-28T12:31:11.690Z,0.30
2023-03-28T12:32:11.664Z,0.30
2023-03-28T12:33:11.695Z,0.20
2023-03-28T12:34:11.809Z,0.40
2023-03-28T12:35:11.630Z,0.30
2023-03-28T12:36:11.680Z,0.30
2023-03-28T12:37:11.631Z,0.20
2023-03-28T12:38:11.652Z,0.30
2023-03-28T12:39:11.619Z,0.30
2023-03-28T12:40:11.607Z,0.40
2023-03-28T12:41:11.636Z,0.40
2023-03-28T12:42:11.599Z,0.40
2023-03-28T12:43:11.621Z,0.30
2023-03-28T12:44:11.585Z,0.30
2023-03-28T12:45:11.607Z,0.20
2023-03-28T12:46:11.594Z,0.30
2023-03-28T12:47:11.562Z,0.40
2023-03-28T12:48:11.590Z,0.40
2023-03-28T12:49:11.561Z,0.40
2023-03-28T12:50:11.549Z,0.40
2023-03-28T12:51:11.539Z,0.30
2023-03-28T12:52:11.532Z,0.30
2023-03-28T12:53:11.532Z,0.40
2023-03-28T12:54:11.525Z,0.40
2023-03-28T12:55:11.517Z,0.30
2023-03-28T12:56:11.508Z,0.50
2023-03-28T12:57:11.600Z,0.40
2023-03-28T12:58:11.511Z,0.40
2023-03-28T12:59:11.500Z,0.30
2023-03-28T13:00:11.499Z,0.30
2023-03-28T13:01:11.515Z,0.30
2023-03-28T13:02:11.479Z,0.40
2023-03-28T13:03:11.545Z,0.30
2023-03-28T13:04:11.464Z,0.40
2023-03-28T13:05:12.977Z,0.40
2023-03-28T13:06:11.449Z,0.40
2023-03-28T13:07:11.428Z,0.30
2023-03-28T13:08:11.424Z,0.40
2023-03-28T13:09:11.415Z,0.40
2023-03-28T13:10:11.417Z,0.50
2023-03-28T13:11:11.409Z,0.40
2023-03-28T13:12:11.408Z,0.40
2023-03-28T13:13:11.388Z,0.30
2023-03-28T13:14:11.391Z,0.30
2023-03-28T13:15:11.375Z,0.30
2023-03-28T13:16:11.429Z,0.40
2023-03-28T13:17:11.381Z,0.30
2023-03-28T13:18:11.399Z,0.40